sensor_id;sensor_type;location;lat;lon;timestamp;P1;durP1;ratioP1;P2;durP2;ratioP2
29430;SDS011;16404;49.902;10.074;2023-06-14T00:02:23;11.17;;;5.03;;
29430;SDS011;16404;49.902;10.074;2023-06-14T00:05:08;11.80;;;5.53;;
29430;SDS011;16404;49.902;10.074;2023-06-14T00:07:52;6.28;;;5.05;;
29430;SDS011;16404;49.902;10.074;2023-06-14T00:10:37;6.65;;;5.40;;
29430;SDS011;16404;49.902;10.074;2023-06-14T00:13:24;10.05;;;5.80;;
29430;SDS011;16404;49.902;10.074;2023-06-14T00:16:09;8.75;;;5.30;;
29430;SDS011;16404;49.902;10.074;2023-06-14T00:18:54;11.60;;;5.38;;
29430;SDS011;16404;49.902;10.074;2023-06-14T00:21:38;6.50;;;4.75;;
29430;SDS011;16404;49.902;10.074;2023-06-14T00:24:23;6.82;;;5.03;;
29430;SDS011;16404;49.902;10.074;2023-06-14T00:27:07;10.23;;;5.17;;
29430;SDS011;16404;49.902;10.074;2023-06-14T00:29:52;6.82;;;5.18;;
29430;SDS011;16404;49.902;10.074;2023-06-14T00:32:37;8.40;;;5.10;;
29430;SDS011;16404;49.902;10.074;2023-06-14T00:35:21;9.13;;;4.95;;
29430;SDS011;16404;49.902;10.074;2023-06-14T00:38:06;7.28;;;5.13;;
29430;SDS011;16404;49.902;10.074;2023-06-14T00:40:50;9.47;;;5.40;;
29430;SDS011;16404;49.902;10.074;2023-06-14T00:43:35;11.75;;;6.20;;
29430;SDS011;16404;49.902;10.074;2023-06-14T00:46:19;6.43;;;5.30;;
29430;SDS011;16404;49.902;10.074;2023-06-14T00:49:05;8.60;;;5.40;;
29430;SDS011;16404;49.902;10.074;2023-06-14T00:51:50;6.97;;;5.32;;
29430;SDS011;16404;49.902;10.074;2023-06-14T00:54:36;8.43;;;5.68;;
29430;SDS011;16404;49.902;10.074;2023-06-14T00:57:21;11.43;;;5.82;;
29430;SDS011;16404;49.902;10.074;2023-06-14T01:00:07;7.95;;;5.65;;
29430;SDS011;16404;49.902;10.074;2023-06-14T01:02:53;9.57;;;6.05;;
29430;SDS011;16404;49.902;10.074;2023-06-14T01:05:37;9.53;;;5.53;;
29430;SDS011;16404;49.902;10.074;2023-06-14T01:11:21;11.23;;;5.85;;
29430;SDS011;16404;49.902;10.074;2023-06-14T01:14:16;10.80;;;5.47;;
29430;SDS011;16404;49.902;10.074;2023-06-14T01:17:03;11.25;;;5.43;;
29430;SDS011;16404;49.902;10.074;2023-06-14T01:19:48;9.57;;;5.97;;
29430;SDS011;16404;49.902;10.074;2023-06-14T01:22:50;6.13;;;4.88;;
29430;SDS011;16404;49.902;10.074;2023-06-14T01:25:36;7.85;;;5.05;;
29430;SDS011;16404;49.902;10.074;2023-06-14T01:28:21;14.65;;;5.97;;
29430;SDS011;16404;49.902;10.074;2023-06-14T01:31:06;7.72;;;6.00;;
29430;SDS011;16404;49.902;10.074;2023-06-14T01:33:51;7.85;;;5.90;;
29430;SDS011;16404;49.902;10.074;2023-06-14T01:36:36;8.85;;;5.65;;
29430;SDS011;16404;49.902;10.074;2023-06-14T01:39:25;8.52;;;5.65;;
29430;SDS011;16404;49.902;10.074;2023-06-14T01:42:10;12.20;;;6.17;;
29430;SDS011;16404;49.902;10.074;2023-06-14T01:44:58;12.48;;;6.47;;
29430;SDS011;16404;49.902;10.074;2023-06-14T01:47:45;9.50;;;5.47;;
29430;SDS011;16404;49.902;10.074;2023-06-14T01:50:30;7.63;;;5.40;;
29430;SDS011;16404;49.902;10.074;2023-06-14T01:53:15;12.90;;;5.75;;
29430;SDS011;16404;49.902;10.074;2023-06-14T01:55:59;7.57;;;5.28;;
29430;SDS011;16404;49.902;10.074;2023-06-14T01:58:48;9.45;;;5.63;;
29430;SDS011;16404;49.902;10.074;2023-06-14T02:01:33;9.82;;;5.47;;
29430;SDS011;16404;49.902;10.074;2023-06-14T02:04:19;8.65;;;5.80;;
29430;SDS011;16404;49.902;10.074;2023-06-14T02:07:05;12.50;;;6.45;;
29430;SDS011;16404;49.902;10.074;2023-06-14T02:09:49;9.55;;;6.05;;
29430;SDS011;16404;49.902;10.074;2023-06-14T02:12:34;12.23;;;6.30;;
29430;SDS011;16404;49.902;10.074;2023-06-14T02:15:18;8.40;;;6.47;;
29430;SDS011;16404;49.902;10.074;2023-06-14T02:18:03;10.98;;;6.25;;
29430;SDS011;16404;49.902;10.074;2023-06-14T02:20:50;9.65;;;5.90;;
29430;SDS011;16404;49.902;10.074;2023-06-14T02:23:35;7.43;;;6.38;;
29430;SDS011;16404;49.902;10.074;2023-06-14T02:26:19;7.87;;;5.80;;
29430;SDS011;16404;49.902;10.074;2023-06-14T02:29:04;10.55;;;6.80;;
29430;SDS011;16404;49.902;10.074;2023-06-14T02:31:49;8.48;;;5.57;;
29430;SDS011;16404;49.902;10.074;2023-06-14T02:34:33;9.65;;;5.70;;
29430;SDS011;16404;49.902;10.074;2023-06-14T02:37:18;9.17;;;5.83;;
29430;SDS011;16404;49.902;10.074;2023-06-14T02:40:04;11.55;;;6.57;;
29430;SDS011;16404;49.902;10.074;2023-06-14T02:42:49;8.80;;;6.00;;
29430;SDS011;16404;49.902;10.074;2023-06-14T02:45:34;8.77;;;6.13;;
29430;SDS011;16404;49.902;10.074;2023-06-14T02:48:19;9.15;;;5.55;;
29430;SDS011;16404;49.902;10.074;2023-06-14T02:51:03;9.93;;;6.45;;
29430;SDS011;16404;49.902;10.074;2023-06-14T02:53:48;8.27;;;5.67;;
29430;SDS011;16404;49.902;10.074;2023-06-14T02:56:32;9.75;;;6.05;;
29430;SDS011;16404;49.902;10.074;2023-06-14T02:59:17;10.18;;;6.65;;
29430;SDS011;16404;49.902;10.074;2023-06-14T03:02:02;15.45;;;6.55;;
29430;SDS011;16404;49.902;10.074;2023-06-14T03:04:49;11.90;;;6.68;;
29430;SDS011;16404;49.902;10.074;2023-06-14T03:07:36;8.23;;;5.97;;
29430;SDS011;16404;49.902;10.074;2023-06-14T03:10:25;12.55;;;6.55;;
29430;SDS011;16404;49.902;10.074;2023-06-14T03:13:14;9.85;;;7.25;;
29430;SDS011;16404;49.902;10.074;2023-06-14T03:16:04;9.27;;;6.05;;
29430;SDS011;16404;49.902;10.074;2023-06-14T03:18:52;8.45;;;6.25;;
29430;SDS011;16404;49.902;10.074;2023-06-14T03:21:37;14.70;;;6.55;;
29430;SDS011;16404;49.902;10.074;2023-06-14T03:24:27;12.43;;;6.55;;
29430;SDS011;16404;49.902;10.074;2023-06-14T03:27:13;8.95;;;6.43;;
29430;SDS011;16404;49.902;10.074;2023-06-14T03:30:01;7.25;;;5.75;;
29430;SDS011;16404;49.902;10.074;2023-06-14T03:32:49;9.02;;;6.50;;
29430;SDS011;16404;49.902;10.074;2023-06-14T03:35:36;11.65;;;6.78;;
29430;SDS011;16404;49.902;10.074;2023-06-14T03:38:20;10.57;;;6.07;;
29430;SDS011;16404;49.902;10.074;2023-06-14T03:41:05;13.90;;;6.87;;
29430;SDS011;16404;49.902;10.074;2023-06-14T03:43:50;12.90;;;7.10;;
29430;SDS011;16404;49.902;10.074;2023-06-14T03:46:35;13.55;;;6.68;;
29430;SDS011;16404;49.902;10.074;2023-06-14T03:49:19;10.05;;;6.45;;
29430;SDS011;16404;49.902;10.074;2023-06-14T03:52:05;10.70;;;6.25;;
29430;SDS011;16404;49.902;10.074;2023-06-14T03:54:51;11.38;;;6.60;;
29430;SDS011;16404;49.902;10.074;2023-06-14T03:57:36;10.88;;;6.55;;
29430;SDS011;16404;49.902;10.074;2023-06-14T04:00:25;11.05;;;6.20;;
29430;SDS011;16404;49.902;10.074;2023-06-14T04:03:12;10.13;;;6.20;;
29430;SDS011;16404;49.902;10.074;2023-06-14T04:05:57;9.98;;;6.25;;
29430;SDS011;16404;49.902;10.074;2023-06-14T04:08:43;9.25;;;5.82;;
29430;SDS011;16404;49.902;10.074;2023-06-14T04:11:29;9.25;;;6.60;;
29430;SDS011;16404;49.902;10.074;2023-06-14T04:14:15;9.68;;;6.15;;
29430;SDS011;16404;49.902;10.074;2023-06-14T04:17:00;12.57;;;6.63;;
29430;SDS011;16404;49.902;10.074;2023-06-14T04:19:45;7.80;;;6.05;;
29430;SDS011;16404;49.902;10.074;2023-06-14T04:22:31;7.70;;;6.30;;
29430;SDS011;16404;49.902;10.074;2023-06-14T04:25:17;10.20;;;6.40;;
29430;SDS011;16404;49.902;10.074;2023-06-14T04:28:01;8.07;;;5.30;;
29430;SDS011;16404;49.902;10.074;2023-06-14T04:30:47;9.68;;;5.75;;
29430;SDS011;16404;49.902;10.074;2023-06-14T04:33:36;10.60;;;6.05;;
29430;SDS011;16404;49.902;10.074;2023-06-14T04:36:32;8.68;;;5.95;;
29430;SDS011;16404;49.902;10.074;2023-06-14T04:39:19;9.85;;;5.63;;
29430;SDS011;16404;49.902;10.074;2023-06-14T04:42:07;17.88;;;6.10;;
29430;SDS011;16404;49.902;10.074;2023-06-14T04:44:52;11.90;;;6.15;;
29430;SDS011;16404;49.902;10.074;2023-06-14T04:47:40;12.88;;;5.85;;
29430;SDS011;16404;49.902;10.074;2023-06-14T04:50:26;8.32;;;5.65;;
29430;SDS011;16404;49.902;10.074;2023-06-14T04:53:11;7.63;;;5.55;;
29430;SDS011;16404;49.902;10.074;2023-06-14T04:55:55;9.55;;;5.88;;
29430;SDS011;16404;49.902;10.074;2023-06-14T04:58:40;10.40;;;5.57;;
29430;SDS011;16404;49.902;10.074;2023-06-14T05:01:25;12.68;;;5.68;;
29430;SDS011;16404;49.902;10.074;2023-06-14T05:04:10;6.82;;;4.82;;
29430;SDS011;16404;49.902;10.074;2023-06-14T05:06:54;11.05;;;5.38;;
29430;SDS011;16404;49.902;10.074;2023-06-14T05:09:39;8.27;;;5.43;;
29430;SDS011;16404;49.902;10.074;2023-06-14T05:12:24;11.43;;;5.63;;
29430;SDS011;16404;49.902;10.074;2023-06-14T05:15:09;10.02;;;5.60;;
29430;SDS011;16404;49.902;10.074;2023-06-14T05:17:54;9.98;;;5.53;;
29430;SDS011;16404;49.902;10.074;2023-06-14T05:20:39;8.73;;;4.72;;
29430;SDS011;16404;49.902;10.074;2023-06-14T05:23:25;8.27;;;5.03;;
29430;SDS011;16404;49.902;10.074;2023-06-14T05:26:10;9.35;;;5.10;;
29430;SDS011;16404;49.902;10.074;2023-06-14T05:28:55;7.75;;;5.22;;
29430;SDS011;16404;49.902;10.074;2023-06-14T05:31:44;7.15;;;4.72;;
29430;SDS011;16404;49.902;10.074;2023-06-14T05:34:29;8.25;;;4.47;;
29430;SDS011;16404;49.902;10.074;2023-06-14T05:37:13;8.55;;;4.72;;
29430;SDS011;16404;49.902;10.074;2023-06-14T05:39:58;5.65;;;4.88;;
29430;SDS011;16404;49.902;10.074;2023-06-14T05:42:43;26.50;;;4.53;;
29430;SDS011;16404;49.902;10.074;2023-06-14T05:45:28;13.90;;;4.68;;
29430;SDS011;16404;49.902;10.074;2023-06-14T05:48:12;14.43;;;4.38;;
29430;SDS011;16404;49.902;10.074;2023-06-14T05:50:57;12.82;;;4.63;;
29430;SDS011;16404;49.902;10.074;2023-06-14T05:56:26;7.85;;;4.43;;
29430;SDS011;16404;49.902;10.074;2023-06-14T05:59:11;13.88;;;4.22;;
29430;SDS011;16404;49.902;10.074;2023-06-14T06:01:55;10.48;;;3.95;;
29430;SDS011;16404;49.902;10.074;2023-06-14T06:04:40;10.00;;;4.10;;
29430;SDS011;16404;49.902;10.074;2023-06-14T06:07:25;6.07;;;4.20;;
29430;SDS011;16404;49.902;10.074;2023-06-14T06:10:09;9.75;;;4.85;;
29430;SDS011;16404;49.902;10.074;2023-06-14T06:12:54;5.43;;;4.10;;
29430;SDS011;16404;49.902;10.074;2023-06-14T06:15:38;6.85;;;4.13;;
29430;SDS011;16404;49.902;10.074;2023-06-14T06:18:23;8.98;;;4.28;;
29430;SDS011;16404;49.902;10.074;2023-06-14T06:21:08;7.32;;;4.15;;
29430;SDS011;16404;49.902;10.074;2023-06-14T06:23:52;6.90;;;3.95;;
29430;SDS011;16404;49.902;10.074;2023-06-14T06:26:38;19.83;;;4.55;;
29430;SDS011;16404;49.902;10.074;2023-06-14T06:29:23;18.67;;;3.78;;
29430;SDS011;16404;49.902;10.074;2023-06-14T06:32:07;6.00;;;3.97;;
29430;SDS011;16404;49.902;10.074;2023-06-14T06:34:52;7.07;;;3.45;;
29430;SDS011;16404;49.902;10.074;2023-06-14T06:37:37;7.63;;;3.67;;
29430;SDS011;16404;49.902;10.074;2023-06-14T06:40:21;5.10;;;3.55;;
29430;SDS011;16404;49.902;10.074;2023-06-14T06:43:06;4.40;;;3.80;;
29430;SDS011;16404;49.902;10.074;2023-06-14T06:45:58;6.57;;;3.70;;
29430;SDS011;16404;49.902;10.074;2023-06-14T06:48:43;5.57;;;3.70;;
29430;SDS011;16404;49.902;10.074;2023-06-14T06:51:27;6.22;;;4.28;;
29430;SDS011;16404;49.902;10.074;2023-06-14T06:54:12;6.53;;;3.50;;
29430;SDS011;16404;49.902;10.074;2023-06-14T06:56:57;8.00;;;3.60;;
29430;SDS011;16404;49.902;10.074;2023-06-14T06:59:41;5.38;;;3.80;;
29430;SDS011;16404;49.902;10.074;2023-06-14T07:02:26;7.95;;;3.63;;
29430;SDS011;16404;49.902;10.074;2023-06-14T07:05:11;11.10;;;3.70;;
29430;SDS011;16404;49.902;10.074;2023-06-14T07:07:55;7.90;;;3.17;;
29430;SDS011;16404;49.902;10.074;2023-06-14T07:10:40;6.85;;;3.50;;
29430;SDS011;16404;49.902;10.074;2023-06-14T07:13:25;6.53;;;3.35;;
29430;SDS011;16404;49.902;10.074;2023-06-14T07:16:09;6.53;;;3.42;;
29430;SDS011;16404;49.902;10.074;2023-06-14T07:18:54;7.03;;;3.85;;
29430;SDS011;16404;49.902;10.074;2023-06-14T07:21:38;9.25;;;3.72;;
29430;SDS011;16404;49.902;10.074;2023-06-14T07:24:23;10.98;;;3.78;;
29430;SDS011;16404;49.902;10.074;2023-06-14T07:27:08;7.78;;;4.15;;
29430;SDS011;16404;49.902;10.074;2023-06-14T07:29:52;10.48;;;3.67;;
29430;SDS011;16404;49.902;10.074;2023-06-14T07:32:37;8.93;;;3.63;;
29430;SDS011;16404;49.902;10.074;2023-06-14T07:35:22;5.18;;;3.55;;
29430;SDS011;16404;49.902;10.074;2023-06-14T07:38:07;6.45;;;3.85;;
29430;SDS011;16404;49.902;10.074;2023-06-14T07:40:51;5.22;;;3.63;;
29430;SDS011;16404;49.902;10.074;2023-06-14T07:43:36;4.53;;;3.90;;
29430;SDS011;16404;49.902;10.074;2023-06-14T07:46:20;13.27;;;3.67;;
29430;SDS011;16404;49.902;10.074;2023-06-14T07:49:05;8.85;;;3.38;;
29430;SDS011;16404;49.902;10.074;2023-06-14T07:51:50;6.63;;;3.65;;
29430;SDS011;16404;49.902;10.074;2023-06-14T07:57:19;12.77;;;3.83;;
29430;SDS011;16404;49.902;10.074;2023-06-14T08:00:04;11.10;;;3.38;;
29430;SDS011;16404;49.902;10.074;2023-06-14T08:02:58;4.97;;;3.28;;
29430;SDS011;16404;49.902;10.074;2023-06-14T08:05:43;6.47;;;3.60;;
29430;SDS011;16404;49.902;10.074;2023-06-14T08:08:28;6.05;;;3.70;;
29430;SDS011;16404;49.902;10.074;2023-06-14T08:11:12;7.72;;;3.75;;
29430;SDS011;16404;49.902;10.074;2023-06-14T08:13:57;6.32;;;3.70;;
29430;SDS011;16404;49.902;10.074;2023-06-14T08:16:42;6.57;;;3.85;;
29430;SDS011;16404;49.902;10.074;2023-06-14T08:19:26;7.38;;;3.40;;
29430;SDS011;16404;49.902;10.074;2023-06-14T08:22:12;4.35;;;3.40;;
29430;SDS011;16404;49.902;10.074;2023-06-14T08:24:56;3.95;;;3.20;;
29430;SDS011;16404;49.902;10.074;2023-06-14T08:27:41;7.93;;;3.38;;
29430;SDS011;16404;49.902;10.074;2023-06-14T08:30:25;8.93;;;3.65;;
29430;SDS011;16404;49.902;10.074;2023-06-14T08:33:10;4.93;;;3.95;;
29430;SDS011;16404;49.902;10.074;2023-06-14T08:35:55;5.03;;;3.17;;
29430;SDS011;16404;49.902;10.074;2023-06-14T08:38:39;7.57;;;3.17;;
29430;SDS011;16404;49.902;10.074;2023-06-14T08:41:24;7.97;;;3.25;;
29430;SDS011;16404;49.902;10.074;2023-06-14T08:44:11;4.28;;;3.40;;
29430;SDS011;16404;49.902;10.074;2023-06-14T08:49:41;10.88;;;3.25;;
29430;SDS011;16404;49.902;10.074;2023-06-14T08:52:31;10.38;;;3.67;;
29430;SDS011;16404;49.902;10.074;2023-06-14T08:55:24;8.68;;;3.22;;
29430;SDS011;16404;49.902;10.074;2023-06-14T08:58:11;11.40;;;3.67;;
29430;SDS011;16404;49.902;10.074;2023-06-14T09:00:58;12.98;;;4.10;;
29430;SDS011;16404;49.902;10.074;2023-06-14T09:03:44;5.05;;;2.90;;
29430;SDS011;16404;49.902;10.074;2023-06-14T09:09:14;4.88;;;3.28;;
29430;SDS011;16404;49.902;10.074;2023-06-14T09:11:58;5.30;;;3.47;;
29430;SDS011;16404;49.902;10.074;2023-06-14T09:14:43;7.65;;;2.97;;
29430;SDS011;16404;49.902;10.074;2023-06-14T09:17:28;10.18;;;3.55;;
29430;SDS011;16404;49.902;10.074;2023-06-14T09:20:13;3.88;;;3.15;;
29430;SDS011;16404;49.902;10.074;2023-06-14T09:23:01;3.97;;;3.10;;
29430;SDS011;16404;49.902;10.074;2023-06-14T09:25:49;4.70;;;3.00;;
29430;SDS011;16404;49.902;10.074;2023-06-14T09:28:34;9.45;;;2.90;;
29430;SDS011;16404;49.902;10.074;2023-06-14T09:31:19;5.90;;;3.22;;
29430;SDS011;16404;49.902;10.074;2023-06-14T09:34:05;6.85;;;3.58;;
29430;SDS011;16404;49.902;10.074;2023-06-14T09:36:49;5.82;;;3.45;;
29430;SDS011;16404;49.902;10.074;2023-06-14T09:42:19;6.85;;;3.05;;
29430;SDS011;16404;49.902;10.074;2023-06-14T09:47:49;6.60;;;3.20;;
29430;SDS011;16404;49.902;10.074;2023-06-14T09:50:34;7.60;;;3.08;;
29430;SDS011;16404;49.902;10.074;2023-06-14T09:56:05;5.05;;;3.15;;
29430;SDS011;16404;49.902;10.074;2023-06-14T09:58:49;2.67;;;2.45;;
29430;SDS011;16404;49.902;10.074;2023-06-14T10:01:42;4.82;;;3.00;;
29430;SDS011;16404;49.902;10.074;2023-06-14T10:04:29;6.55;;;3.00;;
29430;SDS011;16404;49.902;10.074;2023-06-14T10:07:16;4.50;;;3.15;;
29430;SDS011;16404;49.902;10.074;2023-06-14T10:10:03;3.70;;;3.08;;
29430;SDS011;16404;49.902;10.074;2023-06-14T10:12:49;5.15;;;3.10;;
29430;SDS011;16404;49.902;10.074;2023-06-14T10:21:37;3.72;;;2.70;;
29430;SDS011;16404;49.902;10.074;2023-06-14T10:24:31;4.03;;;2.53;;
29430;SDS011;16404;49.902;10.074;2023-06-14T10:27:17;8.57;;;2.70;;
29430;SDS011;16404;49.902;10.074;2023-06-14T10:30:07;4.68;;;2.83;;
29430;SDS011;16404;49.902;10.074;2023-06-14T10:33:05;4.72;;;2.85;;
29430;SDS011;16404;49.902;10.074;2023-06-14T10:36:05;3.65;;;2.50;;
29430;SDS011;16404;49.902;10.074;2023-06-14T10:38:58;4.30;;;3.03;;
29430;SDS011;16404;49.902;10.074;2023-06-14T10:41:54;7.05;;;2.85;;
29430;SDS011;16404;49.902;10.074;2023-06-14T10:47:35;3.33;;;2.80;;
29430;SDS011;16404;49.902;10.074;2023-06-14T10:50:27;4.32;;;2.60;;
29430;SDS011;16404;49.902;10.074;2023-06-14T10:53:24;3.22;;;2.50;;
29430;SDS011;16404;49.902;10.074;2023-06-14T10:56:08;3.45;;;2.85;;
29430;SDS011;16404;49.902;10.074;2023-06-14T10:59:08;3.72;;;3.00;;
29430;SDS011;16404;49.902;10.074;2023-06-14T11:04:59;5.93;;;2.45;;
29430;SDS011;16404;49.902;10.074;2023-06-14T11:10:51;4.30;;;2.72;;
29430;SDS011;16404;49.902;10.074;2023-06-14T11:13:42;2.65;;;2.40;;
29430;SDS011;16404;49.902;10.074;2023-06-14T11:16:28;2.90;;;2.60;;
29430;SDS011;16404;49.902;10.074;2023-06-14T11:19:13;2.75;;;2.55;;
29430;SDS011;16404;49.902;10.074;2023-06-14T11:21:58;3.17;;;2.42;;
29430;SDS011;16404;49.902;10.074;2023-06-14T11:24:43;5.40;;;2.70;;
29430;SDS011;16404;49.902;10.074;2023-06-14T11:27:28;5.80;;;2.80;;
29430;SDS011;16404;49.902;10.074;2023-06-14T11:30:13;3.65;;;2.35;;
29430;SDS011;16404;49.902;10.074;2023-06-14T11:32:58;2.90;;;2.58;;
29430;SDS011;16404;49.902;10.074;2023-06-14T11:35:42;2.83;;;2.40;;
29430;SDS011;16404;49.902;10.074;2023-06-14T11:38:27;3.75;;;2.63;;
29430;SDS011;16404;49.902;10.074;2023-06-14T11:41:11;2.78;;;2.58;;
29430;SDS011;16404;49.902;10.074;2023-06-14T11:43:56;5.88;;;2.78;;
29430;SDS011;16404;49.902;10.074;2023-06-14T11:46:41;4.65;;;2.83;;
29430;SDS011;16404;49.902;10.074;2023-06-14T11:49:26;7.97;;;2.28;;
29430;SDS011;16404;49.902;10.074;2023-06-14T11:52:11;3.50;;;2.38;;
29430;SDS011;16404;49.902;10.074;2023-06-14T11:54:55;4.20;;;2.42;;
29430;SDS011;16404;49.902;10.074;2023-06-14T12:00:26;3.67;;;2.60;;
29430;SDS011;16404;49.902;10.074;2023-06-14T12:03:11;5.28;;;2.65;;
29430;SDS011;16404;49.902;10.074;2023-06-14T12:06:06;2.85;;;2.50;;
29430;SDS011;16404;49.902;10.074;2023-06-14T12:08:51;5.70;;;2.60;;
29430;SDS011;16404;49.902;10.074;2023-06-14T12:11:39;4.50;;;2.40;;
29430;SDS011;16404;49.902;10.074;2023-06-14T12:14:27;4.53;;;2.60;;
29430;SDS011;16404;49.902;10.074;2023-06-14T12:17:13;4.07;;;2.60;;
29430;SDS011;16404;49.902;10.074;2023-06-14T12:20:05;3.45;;;2.45;;
29430;SDS011;16404;49.902;10.074;2023-06-14T12:23:02;3.88;;;2.38;;
29430;SDS011;16404;49.902;10.074;2023-06-14T12:25:47;5.85;;;2.55;;
29430;SDS011;16404;49.902;10.074;2023-06-14T12:28:33;6.10;;;2.60;;
29430;SDS011;16404;49.902;10.074;2023-06-14T12:31:17;4.55;;;2.70;;
29430;SDS011;16404;49.902;10.074;2023-06-14T12:36:47;3.97;;;2.67;;
29430;SDS011;16404;49.902;10.074;2023-06-14T12:39:32;5.13;;;2.67;;
29430;SDS011;16404;49.902;10.074;2023-06-14T12:42:16;5.43;;;2.72;;
29430;SDS011;16404;49.902;10.074;2023-06-14T12:45:01;3.40;;;2.78;;
29430;SDS011;16404;49.902;10.074;2023-06-14T12:47:46;3.55;;;2.22;;
29430;SDS011;16404;49.902;10.074;2023-06-14T12:50:31;3.83;;;2.40;;
29430;SDS011;16404;49.902;10.074;2023-06-14T12:53:15;6.95;;;2.67;;
29430;SDS011;16404;49.902;10.074;2023-06-14T12:58:45;3.30;;;2.13;;
29430;SDS011;16404;49.902;10.074;2023-06-14T13:01:29;4.43;;;2.38;;
29430;SDS011;16404;49.902;10.074;2023-06-14T13:04:14;2.85;;;2.35;;
29430;SDS011;16404;49.902;10.074;2023-06-14T13:06:59;7.30;;;2.15;;
29430;SDS011;16404;49.902;10.074;2023-06-14T13:09:44;4.47;;;2.50;;
29430;SDS011;16404;49.902;10.074;2023-06-14T13:12:28;7.53;;;2.83;;
29430;SDS011;16404;49.902;10.074;2023-06-14T13:15:13;7.38;;;2.58;;
29430;SDS011;16404;49.902;10.074;2023-06-14T13:17:57;4.90;;;2.67;;
29430;SDS011;16404;49.902;10.074;2023-06-14T13:20:42;2.90;;;2.28;;
29430;SDS011;16404;49.902;10.074;2023-06-14T13:23:27;4.30;;;2.70;;
29430;SDS011;16404;49.902;10.074;2023-06-14T13:26:11;3.97;;;2.63;;
29430;SDS011;16404;49.902;10.074;2023-06-14T13:28:56;3.20;;;2.38;;
29430;SDS011;16404;49.902;10.074;2023-06-14T13:31:41;2.97;;;2.45;;
29430;SDS011;16404;49.902;10.074;2023-06-14T13:34:25;5.75;;;2.38;;
29430;SDS011;16404;49.902;10.074;2023-06-14T13:37:10;5.10;;;2.35;;
29430;SDS011;16404;49.902;10.074;2023-06-14T13:39:54;2.95;;;2.05;;
29430;SDS011;16404;49.902;10.074;2023-06-14T13:42:39;2.95;;;2.28;;
29430;SDS011;16404;49.902;10.074;2023-06-14T13:45:24;5.35;;;2.22;;
29430;SDS011;16404;49.902;10.074;2023-06-14T13:48:08;2.85;;;2.22;;
29430;SDS011;16404;49.902;10.074;2023-06-14T13:50:53;3.50;;;2.13;;
29430;SDS011;16404;49.902;10.074;2023-06-14T13:53:38;4.60;;;2.17;;
29430;SDS011;16404;49.902;10.074;2023-06-14T13:59:07;8.95;;;2.80;;
29430;SDS011;16404;49.902;10.074;2023-06-14T14:04:37;2.60;;;2.40;;
29430;SDS011;16404;49.902;10.074;2023-06-14T14:07:21;45.13;;;4.55;;
29430;SDS011;16404;49.902;10.074;2023-06-14T14:10:06;7.22;;;2.70;;
29430;SDS011;16404;49.902;10.074;2023-06-14T14:12:51;160.20;;;12.98;;
29430;SDS011;16404;49.902;10.074;2023-06-14T14:15:36;8.63;;;2.35;;
29430;SDS011;16404;49.902;10.074;2023-06-14T14:18:21;5.13;;;2.42;;
29430;SDS011;16404;49.902;10.074;2023-06-14T14:21:06;43.63;;;4.45;;
29430;SDS011;16404;49.902;10.074;2023-06-14T14:23:50;134.23;;;11.15;;
29430;SDS011;16404;49.902;10.074;2023-06-14T14:26:35;3.38;;;2.35;;
29430;SDS011;16404;49.902;10.074;2023-06-14T14:29:19;7.40;;;2.20;;
29430;SDS011;16404;49.902;10.074;2023-06-14T14:32:04;7.65;;;2.25;;
29430;SDS011;16404;49.902;10.074;2023-06-14T14:34:48;6.28;;;2.22;;
29430;SDS011;16404;49.902;10.074;2023-06-14T14:37:33;5.15;;;2.10;;
29430;SDS011;16404;49.902;10.074;2023-06-14T14:40:17;42.28;;;4.65;;
29430;SDS011;16404;49.902;10.074;2023-06-14T14:43:02;3.70;;;2.03;;
29430;SDS011;16404;49.902;10.074;2023-06-14T14:45:47;2.35;;;2.10;;
29430;SDS011;16404;49.902;10.074;2023-06-14T14:48:31;8.27;;;2.40;;
29430;SDS011;16404;49.902;10.074;2023-06-14T14:51:15;4.65;;;2.40;;
29430;SDS011;16404;49.902;10.074;2023-06-14T14:54:00;3.28;;;2.40;;
29430;SDS011;16404;49.902;10.074;2023-06-14T14:56:44;11.45;;;2.60;;
29430;SDS011;16404;49.902;10.074;2023-06-14T14:59:29;3.70;;;2.35;;
29430;SDS011;16404;49.902;10.074;2023-06-14T15:02:14;9.93;;;2.50;;
29430;SDS011;16404;49.902;10.074;2023-06-14T15:04:58;4.60;;;2.13;;
29430;SDS011;16404;49.902;10.074;2023-06-14T15:07:44;4.53;;;1.98;;
29430;SDS011;16404;49.902;10.074;2023-06-14T15:10:29;5.22;;;2.40;;
29430;SDS011;16404;49.902;10.074;2023-06-14T15:13:14;2.40;;;2.00;;
29430;SDS011;16404;49.902;10.074;2023-06-14T15:15:58;28.83;;;3.33;;
29430;SDS011;16404;49.902;10.074;2023-06-14T15:18:43;3.63;;;2.47;;
29430;SDS011;16404;49.902;10.074;2023-06-14T15:21:27;3.72;;;1.98;;
29430;SDS011;16404;49.902;10.074;2023-06-14T15:24:12;7.88;;;2.47;;
29430;SDS011;16404;49.902;10.074;2023-06-14T15:26:57;5.65;;;2.20;;
29430;SDS011;16404;49.902;10.074;2023-06-14T15:29:41;7.40;;;2.35;;
29430;SDS011;16404;49.902;10.074;2023-06-14T15:32:27;4.15;;;2.28;;
29430;SDS011;16404;49.902;10.074;2023-06-14T15:35:11;3.78;;;2.40;;
29430;SDS011;16404;49.902;10.074;2023-06-14T15:37:56;2.72;;;2.22;;
29430;SDS011;16404;49.902;10.074;2023-06-14T15:40:41;2.13;;;1.92;;
29430;SDS011;16404;49.902;10.074;2023-06-14T15:43:25;4.57;;;2.08;;
29430;SDS011;16404;49.902;10.074;2023-06-14T15:46:10;4.85;;;2.30;;
29430;SDS011;16404;49.902;10.074;2023-06-14T15:48:54;6.70;;;2.40;;
29430;SDS011;16404;49.902;10.074;2023-06-14T15:51:39;2.80;;;2.28;;
29430;SDS011;16404;49.902;10.074;2023-06-14T15:54:24;7.50;;;2.08;;
29430;SDS011;16404;49.902;10.074;2023-06-14T15:57:08;7.65;;;2.40;;
29430;SDS011;16404;49.902;10.074;2023-06-14T15:59:54;4.53;;;2.13;;
29430;SDS011;16404;49.902;10.074;2023-06-14T16:02:38;6.60;;;2.40;;
29430;SDS011;16404;49.902;10.074;2023-06-14T16:05:23;3.20;;;2.30;;
29430;SDS011;16404;49.902;10.074;2023-06-14T16:08:07;4.57;;;2.28;;
29430;SDS011;16404;49.902;10.074;2023-06-14T16:10:52;4.47;;;2.58;;
29430;SDS011;16404;49.902;10.074;2023-06-14T16:13:37;4.15;;;2.00;;
29430;SDS011;16404;49.902;10.074;2023-06-14T16:16:24;3.83;;;2.58;;
29430;SDS011;16404;49.902;10.074;2023-06-14T16:19:08;2.88;;;2.03;;
29430;SDS011;16404;49.902;10.074;2023-06-14T16:21:53;3.13;;;2.63;;
29430;SDS011;16404;49.902;10.074;2023-06-14T16:24:37;3.50;;;2.40;;
29430;SDS011;16404;49.902;10.074;2023-06-14T16:27:22;3.22;;;2.40;;
29430;SDS011;16404;49.902;10.074;2023-06-14T16:30:07;3.50;;;2.65;;
29430;SDS011;16404;49.902;10.074;2023-06-14T16:35:36;5.80;;;2.42;;
29430;SDS011;16404;49.902;10.074;2023-06-14T16:38:20;4.95;;;2.35;;
29430;SDS011;16404;49.902;10.074;2023-06-14T16:41:05;4.95;;;2.47;;
29430;SDS011;16404;49.902;10.074;2023-06-14T16:43:50;3.45;;;2.10;;
29430;SDS011;16404;49.902;10.074;2023-06-14T16:46:34;7.10;;;2.60;;
29430;SDS011;16404;49.902;10.074;2023-06-14T16:49:19;4.38;;;2.22;;
29430;SDS011;16404;49.902;10.074;2023-06-14T16:52:04;4.35;;;2.28;;
29430;SDS011;16404;49.902;10.074;2023-06-14T16:54:49;3.50;;;2.50;;
29430;SDS011;16404;49.902;10.074;2023-06-14T16:57:33;6.10;;;2.50;;
29430;SDS011;16404;49.902;10.074;2023-06-14T17:00:18;2.45;;;2.25;;
29430;SDS011;16404;49.902;10.074;2023-06-14T17:05:57;3.15;;;2.30;;
29430;SDS011;16404;49.902;10.074;2023-06-14T17:08:42;4.13;;;2.13;;
29430;SDS011;16404;49.902;10.074;2023-06-14T17:14:11;2.45;;;2.00;;
29430;SDS011;16404;49.902;10.074;2023-06-14T17:16:56;2.75;;;2.47;;
29430;SDS011;16404;49.902;10.074;2023-06-14T17:19:41;8.45;;;2.70;;